sensor_id;sensor_type;location;lat;lon;timestamp;P1;durP1;ratioP1;P2;durP2;ratioP2
67272;SDS011;54190;49.770;9.250;2023-07-22T00:00:29;4.63;;;2.80;;
67272;SDS011;54190;49.770;9.250;2023-07-22T00:02:56;4.03;;;2.70;;
67272;SDS011;54190;49.770;9.250;2023-07-22T00:05:21;3.30;;;2.63;;
67272;SDS011;54190;49.770;9.250;2023-07-22T00:07:51;5.33;;;3.00;;
67272;SDS011;54190;49.770;9.250;2023-07-22T00:10:17;4.63;;;2.80;;
67272;SDS011;54190;49.770;9.250;2023-07-22T00:12:43;4.70;;;3.13;;
67272;SDS011;54190;49.770;9.250;2023-07-22T00:15:09;3.60;;;2.90;;
67272;SDS011;54190;49.770;9.250;2023-07-22T00:17:40;4.30;;;2.70;;
67272;SDS011;54190;49.770;9.250;2023-07-22T00:20:07;4.83;;;3.00;;
67272;SDS011;54190;49.770;9.250;2023-07-22T00:22:37;3.70;;;2.93;;
67272;SDS011;54190;49.770;9.250;2023-07-22T00:25:05;4.40;;;3.10;;
67272;SDS011;54190;49.770;9.250;2023-07-22T00:27:33;4.37;;;3.00;;
67272;SDS011;54190;49.770;9.250;2023-07-22T00:29:58;4.10;;;3.30;;
67272;SDS011;54190;49.770;9.250;2023-07-22T00:32:24;3.97;;;2.97;;
67272;SDS011;54190;49.770;9.250;2023-07-22T00:34:49;3.57;;;2.90;;
67272;SDS011;54190;49.770;9.250;2023-07-22T00:37:16;3.80;;;2.80;;
67272;SDS011;54190;49.770;9.250;2023-07-22T00:39:42;5.30;;;2.97;;
67272;SDS011;54190;49.770;9.250;2023-07-22T00:42:07;4.30;;;2.60;;
67272;SDS011;54190;49.770;9.250;2023-07-22T00:44:33;4.23;;;3.17;;
67272;SDS011;54190;49.770;9.250;2023-07-22T00:46:59;3.47;;;2.60;;
67272;SDS011;54190;49.770;9.250;2023-07-22T00:49:25;7.60;;;2.77;;
67272;SDS011;54190;49.770;9.250;2023-07-22T00:51:53;4.80;;;2.87;;
67272;SDS011;54190;49.770;9.250;2023-07-22T00:54:18;4.47;;;3.37;;
67272;SDS011;54190;49.770;9.250;2023-07-22T00:56:44;5.43;;;3.20;;
67272;SDS011;54190;49.770;9.250;2023-07-22T00:59:12;3.80;;;3.10;;
67272;SDS011;54190;49.770;9.250;2023-07-22T01:01:40;5.37;;;3.47;;
67272;SDS011;54190;49.770;9.250;2023-07-22T01:04:07;5.43;;;3.20;;
67272;SDS011;54190;49.770;9.250;2023-07-22T01:06:33;4.37;;;3.10;;
67272;SDS011;54190;49.770;9.250;2023-07-22T01:09:00;3.87;;;2.90;;
67272;SDS011;54190;49.770;9.250;2023-07-22T01:11:25;4.50;;;3.40;;
67272;SDS011;54190;49.770;9.250;2023-07-22T01:13:51;4.10;;;3.20;;
67272;SDS011;54190;49.770;9.250;2023-07-22T01:16:23;4.00;;;3.10;;
67272;SDS011;54190;49.770;9.250;2023-07-22T01:18:50;7.93;;;3.27;;
67272;SDS011;54190;49.770;9.250;2023-07-22T01:21:18;4.87;;;3.20;;
67272;SDS011;54190;49.770;9.250;2023-07-22T01:23:46;3.97;;;3.20;;
67272;SDS011;54190;49.770;9.250;2023-07-22T01:26:12;4.50;;;3.40;;
67272;SDS011;54190;49.770;9.250;2023-07-22T01:28:38;4.33;;;3.30;;
67272;SDS011;54190;49.770;9.250;2023-07-22T01:31:04;4.83;;;3.57;;
67272;SDS011;54190;49.770;9.250;2023-07-22T01:33:30;5.73;;;3.60;;
67272;SDS011;54190;49.770;9.250;2023-07-22T01:35:56;3.80;;;3.23;;
67272;SDS011;54190;49.770;9.250;2023-07-22T01:38:23;4.10;;;3.07;;
67272;SDS011;54190;49.770;9.250;2023-07-22T01:40:49;3.93;;;3.50;;
67272;SDS011;54190;49.770;9.250;2023-07-22T01:43:14;4.03;;;3.33;;
67272;SDS011;54190;49.770;9.250;2023-07-22T01:45:43;5.10;;;3.43;;
67272;SDS011;54190;49.770;9.250;2023-07-22T01:48:08;4.00;;;3.20;;
67272;SDS011;54190;49.770;9.250;2023-07-22T01:50:34;4.87;;;3.77;;
67272;SDS011;54190;49.770;9.250;2023-07-22T01:53:00;4.93;;;3.80;;
67272;SDS011;54190;49.770;9.250;2023-07-22T01:55:25;4.00;;;3.00;;
67272;SDS011;54190;49.770;9.250;2023-07-22T01:57:51;5.00;;;3.40;;
67272;SDS011;54190;49.770;9.250;2023-07-22T02:00:17;5.80;;;3.50;;
67272;SDS011;54190;49.770;9.250;2023-07-22T02:02:43;4.40;;;3.40;;
67272;SDS011;54190;49.770;9.250;2023-07-22T02:05:08;4.83;;;4.10;;
67272;SDS011;54190;49.770;9.250;2023-07-22T02:07:37;5.00;;;3.60;;
67272;SDS011;54190;49.770;9.250;2023-07-22T02:10:04;4.30;;;3.60;;
67272;SDS011;54190;49.770;9.250;2023-07-22T02:12:30;4.10;;;3.20;;
67272;SDS011;54190;49.770;9.250;2023-07-22T02:14:56;10.23;;;4.20;;
67272;SDS011;54190;49.770;9.250;2023-07-22T02:17:22;6.43;;;3.67;;
67272;SDS011;54190;49.770;9.250;2023-07-22T02:19:48;4.27;;;3.47;;
67272;SDS011;54190;49.770;9.250;2023-07-22T02:22:14;4.50;;;3.80;;
67272;SDS011;54190;49.770;9.250;2023-07-22T02:24:40;4.70;;;3.83;;
67272;SDS011;54190;49.770;9.250;2023-07-22T02:27:06;5.40;;;3.80;;
67272;SDS011;54190;49.770;9.250;2023-07-22T02:29:33;4.67;;;3.80;;
67272;SDS011;54190;49.770;9.250;2023-07-22T02:31:59;6.00;;;3.57;;
67272;SDS011;54190;49.770;9.250;2023-07-22T02:34:25;4.90;;;4.07;;
67272;SDS011;54190;49.770;9.250;2023-07-22T02:36:51;6.00;;;3.93;;
67272;SDS011;54190;49.770;9.250;2023-07-22T02:39:17;5.10;;;3.67;;
67272;SDS011;54190;49.770;9.250;2023-07-22T02:41:42;6.30;;;3.70;;
67272;SDS011;54190;49.770;9.250;2023-07-22T02:44:08;5.53;;;4.17;;
67272;SDS011;54190;49.770;9.250;2023-07-22T02:46:34;5.90;;;4.10;;
67272;SDS011;54190;49.770;9.250;2023-07-22T02:48:59;7.03;;;3.70;;
67272;SDS011;54190;49.770;9.250;2023-07-22T02:51:25;5.30;;;3.87;;
67272;SDS011;54190;49.770;9.250;2023-07-22T02:53:51;5.63;;;4.17;;
67272;SDS011;54190;49.770;9.250;2023-07-22T02:56:16;5.37;;;4.40;;
67272;SDS011;54190;49.770;9.250;2023-07-22T02:58:42;5.97;;;4.43;;
67272;SDS011;54190;49.770;9.250;2023-07-22T03:01:08;5.30;;;4.30;;
67272;SDS011;54190;49.770;9.250;2023-07-22T03:03:36;5.37;;;4.10;;
67272;SDS011;54190;49.770;9.250;2023-07-22T03:06:02;6.60;;;4.40;;
67272;SDS011;54190;49.770;9.250;2023-07-22T03:08:29;6.00;;;4.40;;
67272;SDS011;54190;49.770;9.250;2023-07-22T03:10:55;4.73;;;3.70;;
67272;SDS011;54190;49.770;9.250;2023-07-22T03:13:21;7.70;;;3.70;;
67272;SDS011;54190;49.770;9.250;2023-07-22T03:15:46;5.20;;;4.03;;
67272;SDS011;54190;49.770;9.250;2023-07-22T03:18:12;7.90;;;4.10;;
67272;SDS011;54190;49.770;9.250;2023-07-22T03:20:38;4.80;;;3.73;;
67272;SDS011;54190;49.770;9.250;2023-07-22T03:23:05;5.40;;;3.70;;
67272;SDS011;54190;49.770;9.250;2023-07-22T03:25:32;5.23;;;3.50;;
67272;SDS011;54190;49.770;9.250;2023-07-22T03:27:59;5.93;;;4.07;;
67272;SDS011;54190;49.770;9.250;2023-07-22T03:30:28;5.47;;;3.50;;
67272;SDS011;54190;49.770;9.250;2023-07-22T03:32:54;5.20;;;3.30;;
67272;SDS011;54190;49.770;9.250;2023-07-22T03:35:20;5.17;;;3.27;;
67272;SDS011;54190;49.770;9.250;2023-07-22T03:37:46;5.60;;;4.03;;
67272;SDS011;54190;49.770;9.250;2023-07-22T03:40:12;6.37;;;3.73;;
67272;SDS011;54190;49.770;9.250;2023-07-22T03:42:53;5.47;;;3.63;;
67272;SDS011;54190;49.770;9.250;2023-07-22T03:45:20;5.83;;;4.20;;
67272;SDS011;54190;49.770;9.250;2023-07-22T03:47:47;5.23;;;3.93;;
67272;SDS011;54190;49.770;9.250;2023-07-22T03:50:15;5.83;;;4.00;;
67272;SDS011;54190;49.770;9.250;2023-07-22T03:52:41;4.80;;;3.80;;
67272;SDS011;54190;49.770;9.250;2023-07-22T03:55:07;9.07;;;3.43;;
67272;SDS011;54190;49.770;9.250;2023-07-22T03:57:33;7.43;;;3.50;;
67272;SDS011;54190;49.770;9.250;2023-07-22T03:59:59;4.17;;;3.30;;
67272;SDS011;54190;49.770;9.250;2023-07-22T04:02:25;4.13;;;3.10;;
67272;SDS011;54190;49.770;9.250;2023-07-22T04:04:54;6.77;;;3.60;;
67272;SDS011;54190;49.770;9.250;2023-07-22T04:07:21;4.47;;;3.30;;
67272;SDS011;54190;49.770;9.250;2023-07-22T04:09:47;3.90;;;3.30;;
67272;SDS011;54190;49.770;9.250;2023-07-22T04:12:13;4.80;;;3.43;;
67272;SDS011;54190;49.770;9.250;2023-07-22T04:14:39;4.80;;;3.43;;
67272;SDS011;54190;49.770;9.250;2023-07-22T04:17:05;6.50;;;3.60;;
67272;SDS011;54190;49.770;9.250;2023-07-22T04:19:31;4.63;;;3.40;;
67272;SDS011;54190;49.770;9.250;2023-07-22T04:21:57;4.87;;;3.50;;
67272;SDS011;54190;49.770;9.250;2023-07-22T04:24:23;4.90;;;3.47;;
67272;SDS011;54190;49.770;9.250;2023-07-22T04:26:50;7.57;;;3.77;;
67272;SDS011;54190;49.770;9.250;2023-07-22T04:29:16;4.90;;;3.97;;
67272;SDS011;54190;49.770;9.250;2023-07-22T04:31:41;4.20;;;3.37;;
67272;SDS011;54190;49.770;9.250;2023-07-22T04:34:08;5.10;;;3.67;;
67272;SDS011;54190;49.770;9.250;2023-07-22T04:36:34;7.37;;;3.67;;
67272;SDS011;54190;49.770;9.250;2023-07-22T04:39:02;4.60;;;3.50;;
67272;SDS011;54190;49.770;9.250;2023-07-22T04:41:30;6.03;;;4.03;;
67272;SDS011;54190;49.770;9.250;2023-07-22T04:43:56;4.50;;;3.50;;
67272;SDS011;54190;49.770;9.250;2023-07-22T04:46:23;4.90;;;3.43;;
67272;SDS011;54190;49.770;9.250;2023-07-22T04:48:55;5.90;;;3.53;;
67272;SDS011;54190;49.770;9.250;2023-07-22T04:51:23;4.77;;;3.40;;
67272;SDS011;54190;49.770;9.250;2023-07-22T04:53:49;5.70;;;3.43;;
67272;SDS011;54190;49.770;9.250;2023-07-22T04:56:14;5.77;;;3.73;;
67272;SDS011;54190;49.770;9.250;2023-07-22T04:58:41;4.60;;;3.50;;
67272;SDS011;54190;49.770;9.250;2023-07-22T05:01:07;5.10;;;3.87;;
67272;SDS011;54190;49.770;9.250;2023-07-22T05:03:33;5.40;;;4.17;;
67272;SDS011;54190;49.770;9.250;2023-07-22T05:05:59;5.70;;;4.33;;
67272;SDS011;54190;49.770;9.250;2023-07-22T05:08:26;5.40;;;4.07;;
67272;SDS011;54190;49.770;9.250;2023-07-22T05:10:52;6.47;;;3.80;;
67272;SDS011;54190;49.770;9.250;2023-07-22T05:13:18;6.10;;;4.23;;
67272;SDS011;54190;49.770;9.250;2023-07-22T05:15:44;6.30;;;4.10;;
67272;SDS011;54190;49.770;9.250;2023-07-22T05:18:09;5.40;;;4.20;;
67272;SDS011;54190;49.770;9.250;2023-07-22T05:20:35;6.23;;;4.30;;
67272;SDS011;54190;49.770;9.250;2023-07-22T05:23:03;6.43;;;4.60;;
67272;SDS011;54190;49.770;9.250;2023-07-22T05:25:28;5.77;;;4.43;;
67272;SDS011;54190;49.770;9.250;2023-07-22T05:27:54;7.63;;;4.50;;
67272;SDS011;54190;49.770;9.250;2023-07-22T05:30:20;7.53;;;4.20;;
67272;SDS011;54190;49.770;9.250;2023-07-22T05:32:45;8.43;;;4.23;;
67272;SDS011;54190;49.770;9.250;2023-07-22T05:35:11;6.17;;;4.63;;
67272;SDS011;54190;49.770;9.250;2023-07-22T05:37:37;5.90;;;4.17;;
67272;SDS011;54190;49.770;9.250;2023-07-22T05:40:02;8.83;;;4.33;;
67272;SDS011;54190;49.770;9.250;2023-07-22T05:42:28;7.10;;;4.50;;
67272;SDS011;54190;49.770;9.250;2023-07-22T05:44:57;6.03;;;4.40;;
67272;SDS011;54190;49.770;9.250;2023-07-22T05:47:23;5.53;;;4.20;;
67272;SDS011;54190;49.770;9.250;2023-07-22T05:49:49;5.47;;;4.50;;
67272;SDS011;54190;49.770;9.250;2023-07-22T05:52:15;5.57;;;4.40;;
67272;SDS011;54190;49.770;9.250;2023-07-22T05:54:40;6.87;;;5.27;;
67272;SDS011;54190;49.770;9.250;2023-07-22T05:57:06;6.90;;;4.73;;
67272;SDS011;54190;49.770;9.250;2023-07-22T05:59:32;8.50;;;5.00;;
67272;SDS011;54190;49.770;9.250;2023-07-22T06:01:57;7.07;;;4.60;;
67272;SDS011;54190;49.770;9.250;2023-07-22T06:04:23;5.90;;;4.87;;
67272;SDS011;54190;49.770;9.250;2023-07-22T06:06:49;5.00;;;4.50;;
67272;SDS011;54190;49.770;9.250;2023-07-22T06:09:14;5.30;;;4.30;;
67272;SDS011;54190;49.770;9.250;2023-07-22T06:11:40;5.50;;;4.37;;
67272;SDS011;54190;49.770;9.250;2023-07-22T06:14:06;6.50;;;4.90;;
67272;SDS011;54190;49.770;9.250;2023-07-22T06:16:33;6.60;;;5.07;;
67272;SDS011;54190;49.770;9.250;2023-07-22T06:18:58;6.70;;;4.47;;
67272;SDS011;54190;49.770;9.250;2023-07-22T06:21:24;5.90;;;4.23;;
67272;SDS011;54190;49.770;9.250;2023-07-22T06:23:50;6.73;;;4.67;;
67272;SDS011;54190;49.770;9.250;2023-07-22T06:26:15;8.97;;;4.47;;
67272;SDS011;54190;49.770;9.250;2023-07-22T06:28:41;7.00;;;4.37;;
67272;SDS011;54190;49.770;9.250;2023-07-22T06:31:07;5.23;;;4.70;;
67272;SDS011;54190;49.770;9.250;2023-07-22T06:33:33;5.60;;;4.40;;
67272;SDS011;54190;49.770;9.250;2023-07-22T06:35:58;6.47;;;4.60;;
67272;SDS011;54190;49.770;9.250;2023-07-22T06:38:24;5.70;;;4.10;;
67272;SDS011;54190;49.770;9.250;2023-07-22T06:40:52;5.67;;;4.47;;
67272;SDS011;54190;49.770;9.250;2023-07-22T06:43:18;6.83;;;4.57;;
67272;SDS011;54190;49.770;9.250;2023-07-22T06:45:44;6.53;;;4.43;;
67272;SDS011;54190;49.770;9.250;2023-07-22T06:48:09;7.10;;;4.03;;
67272;SDS011;54190;49.770;9.250;2023-07-22T06:50:35;6.63;;;4.50;;
67272;SDS011;54190;49.770;9.250;2023-07-22T06:53:01;4.40;;;4.00;;
67272;SDS011;54190;49.770;9.250;2023-07-22T06:55:26;4.83;;;3.93;;
67272;SDS011;54190;49.770;9.250;2023-07-22T06:57:55;4.93;;;3.77;;
67272;SDS011;54190;49.770;9.250;2023-07-22T07:00:21;5.00;;;4.07;;
67272;SDS011;54190;49.770;9.250;2023-07-22T07:02:46;8.00;;;4.27;;
67272;SDS011;54190;49.770;9.250;2023-07-22T07:05:12;5.37;;;3.83;;
67272;SDS011;54190;49.770;9.250;2023-07-22T07:07:38;7.10;;;3.90;;
67272;SDS011;54190;49.770;9.250;2023-07-22T07:10:05;7.13;;;4.30;;
67272;SDS011;54190;49.770;9.250;2023-07-22T07:12:31;6.03;;;4.43;;
67272;SDS011;54190;49.770;9.250;2023-07-22T07:14:57;6.23;;;4.23;;
67272;SDS011;54190;49.770;9.250;2023-07-22T07:17:23;6.33;;;3.80;;
67272;SDS011;54190;49.770;9.250;2023-07-22T07:19:48;5.53;;;4.03;;
67272;SDS011;54190;49.770;9.250;2023-07-22T07:22:14;6.40;;;4.33;;
67272;SDS011;54190;49.770;9.250;2023-07-22T07:24:40;6.63;;;4.13;;
67272;SDS011;54190;49.770;9.250;2023-07-22T07:27:05;5.60;;;4.37;;
67272;SDS011;54190;49.770;9.250;2023-07-22T07:29:31;5.10;;;3.90;;
67272;SDS011;54190;49.770;9.250;2023-07-22T07:31:57;5.77;;;3.83;;
67272;SDS011;54190;49.770;9.250;2023-07-22T07:34:22;4.97;;;3.43;;
67272;SDS011;54190;49.770;9.250;2023-07-22T07:36:48;5.40;;;3.77;;
67272;SDS011;54190;49.770;9.250;2023-07-22T07:39:14;5.87;;;3.40;;
67272;SDS011;54190;49.770;9.250;2023-07-22T07:41:39;5.20;;;3.93;;
67272;SDS011;54190;49.770;9.250;2023-07-22T07:44:05;5.87;;;3.70;;
67272;SDS011;54190;49.770;9.250;2023-07-22T07:46:31;5.77;;;4.13;;
67272;SDS011;54190;49.770;9.250;2023-07-22T07:48:57;6.10;;;3.50;;
67272;SDS011;54190;49.770;9.250;2023-07-22T07:51:26;4.77;;;3.50;;
67272;SDS011;54190;49.770;9.250;2023-07-22T07:53:53;4.70;;;3.73;;
67272;SDS011;54190;49.770;9.250;2023-07-22T07:56:20;5.67;;;3.30;;
67272;SDS011;54190;49.770;9.250;2023-07-22T07:58:48;7.10;;;4.27;;
67272;SDS011;54190;49.770;9.250;2023-07-22T08:01:15;4.90;;;3.50;;
67272;SDS011;54190;49.770;9.250;2023-07-22T08:03:41;8.63;;;3.93;;
67272;SDS011;54190;49.770;9.250;2023-07-22T08:06:08;6.60;;;3.87;;
67272;SDS011;54190;49.770;9.250;2023-07-22T08:08:34;5.30;;;3.93;;
67272;SDS011;54190;49.770;9.250;2023-07-22T08:11:06;5.20;;;3.83;;
67272;SDS011;54190;49.770;9.250;2023-07-22T08:13:38;7.43;;;4.00;;
67272;SDS011;54190;49.770;9.250;2023-07-22T08:16:06;6.00;;;4.27;;
67272;SDS011;54190;49.770;9.250;2023-07-22T08:18:33;3.97;;;3.30;;
67272;SDS011;54190;49.770;9.250;2023-07-22T08:21:01;5.50;;;3.50;;
67272;SDS011;54190;49.770;9.250;2023-07-22T08:23:32;4.50;;;3.50;;
67272;SDS011;54190;49.770;9.250;2023-07-22T08:25:57;4.90;;;3.50;;
67272;SDS011;54190;49.770;9.250;2023-07-22T08:28:23;6.23;;;3.47;;
67272;SDS011;54190;49.770;9.250;2023-07-22T08:30:49;6.03;;;3.60;;
67272;SDS011;54190;49.770;9.250;2023-07-22T08:33:14;5.17;;;3.70;;
67272;SDS011;54190;49.770;9.250;2023-07-22T08:35:41;5.60;;;3.73;;
67272;SDS011;54190;49.770;9.250;2023-07-22T08:38:07;5.40;;;3.10;;
67272;SDS011;54190;49.770;9.250;2023-07-22T08:40:37;6.83;;;4.37;;
67272;SDS011;54190;49.770;9.250;2023-07-22T08:43:07;4.40;;;3.50;;
67272;SDS011;54190;49.770;9.250;2023-07-22T08:45:34;5.30;;;3.00;;
67272;SDS011;54190;49.770;9.250;2023-07-22T08:48:02;4.20;;;3.43;;
67272;SDS011;54190;49.770;9.250;2023-07-22T08:50:34;5.13;;;3.73;;
67272;SDS011;54190;49.770;9.250;2023-07-22T08:53:06;4.70;;;3.67;;
67272;SDS011;54190;49.770;9.250;2023-07-22T08:55:33;4.30;;;3.73;;
67272;SDS011;54190;49.770;9.250;2023-07-22T08:57:59;4.30;;;3.37;;
67272;SDS011;54190;49.770;9.250;2023-07-22T09:00:26;6.63;;;3.70;;
67272;SDS011;54190;49.770;9.250;2023-07-22T09:02:52;4.53;;;3.40;;
67272;SDS011;54190;49.770;9.250;2023-07-22T09:05:18;6.50;;;3.70;;
67272;SDS011;54190;49.770;9.250;2023-07-22T09:07:44;5.03;;;3.50;;
67272;SDS011;54190;49.770;9.250;2023-07-22T09:10:13;4.67;;;3.40;;
67272;SDS011;54190;49.770;9.250;2023-07-22T09:12:41;5.77;;;3.70;;
67272;SDS011;54190;49.770;9.250;2023-07-22T09:15:08;4.80;;;3.97;;
67272;SDS011;54190;49.770;9.250;2023-07-22T09:17:36;4.07;;;3.40;;
67272;SDS011;54190;49.770;9.250;2023-07-22T09:20:03;5.10;;;3.50;;
67272;SDS011;54190;49.770;9.250;2023-07-22T09:22:29;4.17;;;3.20;;
67272;SDS011;54190;49.770;9.250;2023-07-22T09:25:15;5.70;;;3.00;;
67272;SDS011;54190;49.770;9.250;2023-07-22T09:27:41;5.30;;;3.30;;
67272;SDS011;54190;49.770;9.250;2023-07-22T09:30:28;4.30;;;3.53;;
67272;SDS011;54190;49.770;9.250;2023-07-22T09:32:55;6.73;;;4.40;;
67272;SDS011;54190;49.770;9.250;2023-07-22T09:35:23;7.13;;;4.10;;
67272;SDS011;54190;49.770;9.250;2023-07-22T09:37:52;5.10;;;3.70;;
67272;SDS011;54190;49.770;9.250;2023-07-22T09:40:19;8.33;;;3.70;;
67272;SDS011;54190;49.770;9.250;2023-07-22T09:45:16;4.30;;;3.90;;
67272;SDS011;54190;49.770;9.250;2023-07-22T09:47:43;4.53;;;3.20;;
67272;SDS011;54190;49.770;9.250;2023-07-22T09:50:14;4.43;;;3.40;;
67272;SDS011;54190;49.770;9.250;2023-07-22T09:52:42;5.70;;;3.40;;
67272;SDS011;54190;49.770;9.250;2023-07-22T09:55:11;5.13;;;3.33;;
67272;SDS011;54190;49.770;9.250;2023-07-22T09:57:38;4.37;;;3.40;;
67272;SDS011;54190;49.770;9.250;2023-07-22T10:00:08;7.90;;;4.07;;
67272;SDS011;54190;49.770;9.250;2023-07-22T10:02:37;5.27;;;4.77;;
67272;SDS011;54190;49.770;9.250;2023-07-22T10:05:06;6.60;;;3.60;;
67272;SDS011;54190;49.770;9.250;2023-07-22T10:07:33;5.67;;;3.73;;
67272;SDS011;54190;49.770;9.250;2023-07-22T10:10:00;8.20;;;3.50;;
67272;SDS011;54190;49.770;9.250;2023-07-22T10:12:27;4.40;;;3.60;;
67272;SDS011;54190;49.770;9.250;2023-07-22T10:14:52;5.10;;;3.40;;
67272;SDS011;54190;49.770;9.250;2023-07-22T10:17:18;7.30;;;3.53;;
67272;SDS011;54190;49.770;9.250;2023-07-22T10:19:44;4.20;;;3.23;;
67272;SDS011;54190;49.770;9.250;2023-07-22T10:22:10;7.00;;;3.20;;
67272;SDS011;54190;49.770;9.250;2023-07-22T10:24:37;4.63;;;3.27;;
67272;SDS011;54190;49.770;9.250;2023-07-22T10:27:06;3.97;;;3.07;;
67272;SDS011;54190;49.770;9.250;2023-07-22T10:29:32;5.10;;;3.63;;
67272;SDS011;54190;49.770;9.250;2023-07-22T10:31:59;16.00;;;4.43;;
67272;SDS011;54190;49.770;9.250;2023-07-22T10:34:25;7.40;;;4.60;;
67272;SDS011;54190;49.770;9.250;2023-07-22T10:36:50;5.03;;;3.50;;
67272;SDS011;54190;49.770;9.250;2023-07-22T10:39:25;5.03;;;4.00;;
67272;SDS011;54190;49.770;9.250;2023-07-22T10:42:01;4.33;;;3.30;;
67272;SDS011;54190;49.770;9.250;2023-07-22T10:44:35;4.80;;;3.50;;
67272;SDS011;54190;49.770;9.250;2023-07-22T10:47:02;5.53;;;3.50;;
67272;SDS011;54190;49.770;9.250;2023-07-22T10:49:45;6.17;;;3.50;;
67272;SDS011;54190;49.770;9.250;2023-07-22T10:52:13;9.27;;;3.93;;
67272;SDS011;54190;49.770;9.250;2023-07-22T10:54:41;4.40;;;3.37;;
67272;SDS011;54190;49.770;9.250;2023-07-22T10:59:51;4.67;;;3.43;;
67272;SDS011;54190;49.770;9.250;2023-07-22T11:02:23;13.67;;;9.23;;
67272;SDS011;54190;49.770;9.250;2023-07-22T11:04:55;11.43;;;9.83;;
67272;SDS011;54190;49.770;9.250;2023-07-22T11:07:42;5.83;;;4.57;;
67272;SDS011;54190;49.770;9.250;2023-07-22T11:10:17;5.13;;;3.70;;
67272;SDS011;54190;49.770;9.250;2023-07-22T11:12:43;5.63;;;3.77;;
67272;SDS011;54190;49.770;9.250;2023-07-22T11:15:10;4.53;;;3.60;;
67272;SDS011;54190;49.770;9.250;2023-07-22T11:17:36;4.60;;;3.77;;
67272;SDS011;54190;49.770;9.250;2023-07-22T11:20:02;7.60;;;3.53;;
67272;SDS011;54190;49.770;9.250;2023-07-22T11:22:28;4.13;;;3.07;;
67272;SDS011;54190;49.770;9.250;2023-07-22T11:24:55;4.63;;;3.20;;
67272;SDS011;54190;49.770;9.250;2023-07-22T11:27:23;4.80;;;3.27;;
67272;SDS011;54190;49.770;9.250;2023-07-22T11:29:49;4.23;;;3.47;;
67272;SDS011;54190;49.770;9.250;2023-07-22T11:32:18;8.30;;;3.50;;
67272;SDS011;54190;49.770;9.250;2023-07-22T11:34:47;4.63;;;3.73;;
67272;SDS011;54190;49.770;9.250;2023-07-22T11:37:13;8.60;;;3.83;;
67272;SDS011;54190;49.770;9.250;2023-07-22T11:39:40;8.70;;;4.07;;
67272;SDS011;54190;49.770;9.250;2023-07-22T11:42:07;7.43;;;3.80;;
67272;SDS011;54190;49.770;9.250;2023-07-22T11:44:33;13.80;;;3.73;;
67272;SDS011;54190;49.770;9.250;2023-07-22T11:47:00;5.23;;;3.50;;
67272;SDS011;54190;49.770;9.250;2023-07-22T11:49:34;7.50;;;5.10;;
67272;SDS011;54190;49.770;9.250;2023-07-22T11:52:05;7.70;;;4.57;;
67272;SDS011;54190;49.770;9.250;2023-07-22T11:54:35;6.80;;;3.20;;
67272;SDS011;54190;49.770;9.250;2023-07-22T12:02:28;4.27;;;3.27;;
67272;SDS011;54190;49.770;9.250;2023-07-22T12:05:03;4.47;;;3.10;;
67272;SDS011;54190;49.770;9.250;2023-07-22T12:07:30;5.00;;;3.90;;
67272;SDS011;54190;49.770;9.250;2023-07-22T12:09:58;8.83;;;3.97;;
67272;SDS011;54190;49.770;9.250;2023-07-22T12:12:35;5.53;;;3.07;;
67272;SDS011;54190;49.770;9.250;2023-07-22T12:15:12;4.30;;;3.33;;
67272;SDS011;54190;49.770;9.250;2023-07-22T12:20:13;6.27;;;3.67;;
67272;SDS011;54190;49.770;9.250;2023-07-22T12:22:40;3.80;;;2.77;;
67272;SDS011;54190;49.770;9.250;2023-07-22T12:25:06;6.10;;;3.23;;
67272;SDS011;54190;49.770;9.250;2023-07-22T12:27:32;5.30;;;3.53;;
67272;SDS011;54190;49.770;9.250;2023-07-22T12:29:58;4.67;;;2.70;;
67272;SDS011;54190;49.770;9.250;2023-07-22T12:32:23;3.83;;;2.83;;
67272;SDS011;54190;49.770;9.250;2023-07-22T12:34:49;4.77;;;3.33;;
67272;SDS011;54190;49.770;9.250;2023-07-22T12:37:15;3.87;;;3.20;;
67272;SDS011;54190;49.770;9.250;2023-07-22T12:39:41;4.30;;;2.90;;
67272;SDS011;54190;49.770;9.250;2023-07-22T12:42:06;4.17;;;3.10;;
67272;SDS011;54190;49.770;9.250;2023-07-22T12:44:33;3.57;;;2.70;;
67272;SDS011;54190;49.770;9.250;2023-07-22T12:46:58;3.90;;;3.30;;
67272;SDS011;54190;49.770;9.250;2023-07-22T12:49:24;4.10;;;2.77;;
67272;SDS011;54190;49.770;9.250;2023-07-22T12:51:50;3.20;;;2.90;;
67272;SDS011;54190;49.770;9.250;2023-07-22T12:54:16;3.40;;;2.70;;
67272;SDS011;54190;49.770;9.250;2023-07-22T12:56:42;5.10;;;3.03;;
67272;SDS011;54190;49.770;9.250;2023-07-22T12:59:08;6.13;;;3.40;;
67272;SDS011;54190;49.770;9.250;2023-07-22T13:01:34;9.33;;;3.30;;
67272;SDS011;54190;49.770;9.250;2023-07-22T13:04:03;3.23;;;2.70;;
67272;SDS011;54190;49.770;9.250;2023-07-22T13:06:29;5.03;;;2.70;;
67272;SDS011;54190;49.770;9.250;2023-07-22T13:08:55;3.33;;;2.70;;
67272;SDS011;54190;49.770;9.250;2023-07-22T13:11:21;3.80;;;2.70;;
67272;SDS011;54190;49.770;9.250;2023-07-22T13:13:46;5.03;;;3.17;;
67272;SDS011;54190;49.770;9.250;2023-07-22T13:16:12;3.93;;;2.57;;
67272;SDS011;54190;49.770;9.250;2023-07-22T13:18:38;3.80;;;2.90;;
67272;SDS011;54190;49.770;9.250;2023-07-22T13:21:03;3.17;;;2.60;;
67272;SDS011;54190;49.770;9.250;2023-07-22T13:23:29;3.10;;;2.63;;
67272;SDS011;54190;49.770;9.250;2023-07-22T13:25:54;3.53;;;2.80;;
67272;SDS011;54190;49.770;9.250;2023-07-22T13:28:20;3.53;;;2.90;;
67272;SDS011;54190;49.770;9.250;2023-07-22T13:30:46;4.60;;;2.87;;
67272;SDS011;54190;49.770;9.250;2023-07-22T13:33:11;4.80;;;2.93;;
67272;SDS011;54190;49.770;9.250;2023-07-22T13:35:37;5.00;;;2.97;;
67272;SDS011;54190;49.770;9.250;2023-07-22T13:38:03;5.40;;;2.60;;
67272;SDS011;54190;49.770;9.250;2023-07-22T13:40:28;5.17;;;3.10;;
67272;SDS011;54190;49.770;9.250;2023-07-22T13:42:54;5.03;;;3.10;;
67272;SDS011;54190;49.770;9.250;2023-07-22T13:45:20;4.27;;;2.67;;
67272;SDS011;54190;49.770;9.250;2023-07-22T13:47:45;3.67;;;2.87;;
67272;SDS011;54190;49.770;9.250;2023-07-22T13:50:11;4.80;;;2.60;;
67272;SDS011;54190;49.770;9.250;2023-07-22T13:52:37;4.10;;;3.00;;
67272;SDS011;54190;49.770;9.250;2023-07-22T13:55:02;5.53;;;3.33;;
67272;SDS011;54190;49.770;9.250;2023-07-22T13:57:28;6.80;;;3.43;;
67272;SDS011;54190;49.770;9.250;2023-07-22T13:59:54;4.13;;;2.90;;
67272;SDS011;54190;49.770;9.250;2023-07-22T14:02:20;3.53;;;3.03;;
67272;SDS011;54190;49.770;9.250;2023-07-22T14:04:45;3.43;;;3.13;;
67272;SDS011;54190;49.770;9.250;2023-07-22T14:07:11;6.20;;;3.00;;
67272;SDS011;54190;49.770;9.250;2023-07-22T14:09:37;4.90;;;3.10;;
67272;SDS011;54190;49.770;9.250;2023-07-22T14:12:02;5.10;;;3.20;;
67272;SDS011;54190;49.770;9.250;2023-07-22T14:14:28;3.67;;;2.70;;
67272;SDS011;54190;49.770;9.250;2023-07-22T14:16:54;5.60;;;2.87;;
67272;SDS011;54190;49.770;9.250;2023-07-22T14:19:21;3.77;;;2.77;;
67272;SDS011;54190;49.770;9.250;2023-07-22T14:21:46;3.57;;;2.87;;
67272;SDS011;54190;49.770;9.250;2023-07-22T14:24:12;4.03;;;2.80;;
67272;SDS011;54190;49.770;9.250;2023-07-22T14:26:38;5.63;;;3.27;;
67272;SDS011;54190;49.770;9.250;2023-07-22T14:29:03;4.67;;;3.20;;
67272;SDS011;54190;49.770;9.250;2023-07-22T14:31:29;4.40;;;3.20;;
67272;SDS011;54190;49.770;9.250;2023-07-22T14:33:55;7.53;;;3.40;;
67272;SDS011;54190;49.770;9.250;2023-07-22T14:36:20;4.70;;;3.20;;
67272;SDS011;54190;49.770;9.250;2023-07-22T14:38:46;4.07;;;3.20;;
67272;SDS011;54190;49.770;9.250;2023-07-22T14:41:12;4.47;;;3.23;;
67272;SDS011;54190;49.770;9.250;2023-07-22T14:43:37;3.60;;;3.03;;
67272;SDS011;54190;49.770;9.250;2023-07-22T14:46:03;6.73;;;3.57;;
67272;SDS011;54190;49.770;9.250;2023-07-22T14:48:29;4.67;;;3.33;;
67272;SDS011;54190;49.770;9.250;2023-07-22T14:50:55;6.33;;;3.13;;
67272;SDS011;54190;49.770;9.250;2023-07-22T14:53:20;8.83;;;3.10;;
67272;SDS011;54190;49.770;9.250;2023-07-22T14:55:46;5.30;;;3.27;;
67272;SDS011;54190;49.770;9.250;2023-07-22T14:58:12;4.77;;;3.40;;